Time;durP1;ratioP1;P1;durP2;ratioP2;P2;SDS_P1;SDS_P2;PMS_P1;PMS_P2;Temp;Humidity;BMP_temperature;BMP_pressure;BME280_temperature;BME280_humidity;BME280_pressure;Samples;Min_cycle;Max_cycle;Signal;HPM_P1;HPM_P2
2023/06/16 00:01:38;;;;;;;;;;;13.40;99.90;;;;;;5114630;27;19989;-84
2023/06/16 00:04:04;;;;;;;;;;;13.40;99.90;;;;;;5112304;28;20002;-85
2023/06/16 00:06:30;;;;;;;;;;;13.30;99.90;;;;;;5088394;28;19966;-85
2023/06/16 00:08:56;;;;;;;;;;;13.20;99.90;;;;;;5111621;28;19992;-85
2023/06/16 00:11:22;;;;;;;;;;;13.20;99.90;;;;;;5086182;28;19924;-85
2023/06/16 00:13:49;;;;;;;;;;;13.20;99.90;;;;;;5109699;28;20014;-85
2023/06/16 00:16:19;;;;;;;;;;;13.30;99.90;;;;;;5082137;28;19925;-85
2023/06/16 00:18:49;;;;;;;;;;;13.30;99.90;;;;;;5091852;28;19924;-85
2023/06/16 00:21:19;;;;;;;;;;;13.30;99.90;;;;;;5103255;28;19931;-85
2023/06/16 00:23:45;;;;;;;;;;;13.10;99.90;;;;;;5099600;28;19924;-85
2023/06/16 00:26:11;;;;;;;;;;;13.00;99.90;;;;;;5093656;28;19946;-84
2023/06/16 00:28:38;;;;;;;;;;;12.80;99.90;;;;;;5092130;28;19924;-85
2023/06/16 00:31:04;;;;;;;;;;;12.80;99.90;;;;;;5104231;28;20007;-85
2023/06/16 00:33:30;;;;;;;;;;;12.70;99.90;;;;;;5091477;28;20015;-85
2023/06/16 00:35:56;;;;;;;;;;;12.70;99.90;;;;;;5088276;28;19968;-85
2023/06/16 00:38:25;;;;;;;;;;;12.60;99.90;;;;;;5079841;28;19970;-85
2023/06/16 00:40:50;;;;;;;;;;;12.60;99.90;;;;;;5074666;28;19967;-85
2023/06/16 00:43:16;;;;;;;;;;;12.60;99.90;;;;;;5109215;28;20358;-85
2023/06/16 00:45:41;;;;;;;;;;;12.70;99.90;;;;;;5109027;27;19924;-85
2023/06/16 00:48:07;;;;;;;;;;;12.80;99.90;;;;;;5095010;28;20031;-86
2023/06/16 00:50:33;;;;;;;;;;;12.80;99.90;;;;;;5095539;28;20266;-85
2023/06/16 00:52:59;;;;;;;;;;;12.80;99.90;;;;;;5112906;28;20378;-85
2023/06/16 00:55:25;;;;;;;;;;;12.90;99.90;;;;;;5095644;28;20341;-85
2023/06/16 00:57:52;;;;;;;;;;;12.80;99.90;;;;;;5091553;28;19954;-85
2023/06/16 01:00:18;;;;;;;;;;;12.80;99.90;;;;;;5097220;28;19931;-85
2023/06/16 01:02:44;;;;;;;;;;;12.80;99.90;;;;;;5115199;28;20286;-85
2023/06/16 01:05:10;;;;;;;;;;;12.80;99.90;;;;;;5112262;28;19923;-85
2023/06/16 01:07:46;;;;;;;;;;;12.90;99.90;;;;;;5091030;28;19928;-85
2023/06/16 01:10:15;;;;;;;;;;;12.90;99.90;;;;;;5109649;28;20402;-85
2023/06/16 01:12:44;;;;;;;;;;;12.90;99.90;;;;;;5109578;28;19982;-84
2023/06/16 01:15:13;;;;;;;;;;;13.00;99.90;;;;;;5112854;28;19946;-84
2023/06/16 01:17:43;;;;;;;;;;;13.00;99.90;;;;;;5094855;28;19928;-85
2023/06/16 01:20:27;;;;;;;;;;;13.00;99.90;;;;;;5094477;28;19970;-85
2023/06/16 01:23:01;;;;;;;;;;;13.10;99.90;;;;;;5098837;28;19923;-85
2023/06/16 01:25:31;;;;;;;;;;;13.00;99.90;;;;;;5098496;28;19928;-85
2023/06/16 01:27:57;;;;;;;;;;;12.90;99.90;;;;;;5116032;28;20264;-85
2023/06/16 01:30:24;;;;;;;;;;;12.90;99.90;;;;;;5093461;28;19930;-85
2023/06/16 01:32:53;;;;;;;;;;;12.80;99.90;;;;;;5109649;28;19955;-86
2023/06/16 01:35:20;;;;;;;;;;;12.80;99.90;;;;;;5108097;28;19931;-85
2023/06/16 01:37:47;;;;;;;;;;;12.70;99.90;;;;;;5124215;28;19928;-85
2023/06/16 01:40:13;;;;;;;;;;;12.60;99.90;;;;;;5112081;28;19958;-85
2023/06/16 01:42:39;;;;;;;;;;;12.50;99.90;;;;;;5112169;28;20383;-85
2023/06/16 01:45:05;;;;;;;;;;;12.30;99.90;;;;;;5112382;28;20385;-85
2023/06/16 01:47:31;;;;;;;;;;;12.20;99.90;;;;;;5069382;28;19924;-85
2023/06/16 01:49:57;;;;;;;;;;;12.10;99.90;;;;;;5088297;28;19931;-84
2023/06/16 01:52:22;;;;;;;;;;;12.00;99.90;;;;;;5111058;28;20286;-85
2023/06/16 01:54:48;;;;;;;;;;;11.90;99.90;;;;;;5119930;28;19931;-85
2023/06/16 01:57:14;;;;;;;;;;;11.90;99.90;;;;;;5104754;28;20024;-85
2023/06/16 01:59:39;;;;;;;;;;;11.80;99.90;;;;;;5091478;28;19959;-84
2023/06/16 02:02:10;;;;;;;;;;;11.80;99.90;;;;;;5091819;28;20022;-85
2023/06/16 02:04:39;;;;;;;;;;;11.70;99.90;;;;;;5108737;28;19934;-85
2023/06/16 02:07:07;;;;;;;;;;;11.70;99.90;;;;;;5118520;27;19931;-85
2023/06/16 02:09:35;;;;;;;;;;;11.70;99.90;;;;;;5118671;27;20456;-85
2023/06/16 02:12:01;;;;;;;;;;;11.70;99.90;;;;;;5095574;28;20269;-85
2023/06/16 02:14:28;;;;;;;;;;;11.70;99.90;;;;;;5113019;28;19923;-85
2023/06/16 02:16:53;;;;;;;;;;;11.70;99.90;;;;;;5106016;28;19969;-85
2023/06/16 02:19:19;;;;;;;;;;;11.70;99.90;;;;;;5107231;27;19924;-85
2023/06/16 02:21:45;;;;;;;;;;;11.60;99.90;;;;;;5123790;27;19924;-85
2023/06/16 02:24:11;;;;;;;;;;;11.60;99.90;;;;;;5112021;28;19947;-85
2023/06/16 02:26:37;;;;;;;;;;;11.60;99.90;;;;;;5117056;27;20021;-85
2023/06/16 02:29:03;;;;;;;;;;;11.60;99.90;;;;;;5116128;27;19932;-84
2023/06/16 02:31:28;;;;;;;;;;;11.60;99.90;;;;;;5105370;28;19924;-85
2023/06/16 02:33:55;;;;;;;;;;;11.60;99.90;;;;;;5113209;27;19924;-84
2023/06/16 02:36:21;;;;;;;;;;;11.60;99.90;;;;;;5122075;28;19911;-85
2023/06/16 02:38:46;;;;;;;;;;;11.60;99.90;;;;;;5129937;28;19931;-84
2023/06/16 02:41:12;;;;;;;;;;;11.70;99.90;;;;;;5113568;28;19924;-85
2023/06/16 02:43:38;;;;;;;;;;;11.60;99.90;;;;;;5093757;28;19924;-85
2023/06/16 02:46:04;;;;;;;;;;;11.60;99.90;;;;;;5109320;28;19924;-85
2023/06/16 02:48:30;;;;;;;;;;;11.60;99.90;;;;;;5086921;28;20359;-85
2023/06/16 02:50:55;;;;;;;;;;;11.60;99.90;;;;;;5104030;28;19928;-85
2023/06/16 02:53:21;;;;;;;;;;;11.60;99.90;;;;;;5104869;28;19924;-85
2023/06/16 02:55:47;;;;;;;;;;;11.60;99.90;;;;;;5095216;28;20342;-85
2023/06/16 02:58:12;;;;;;;;;;;11.60;99.90;;;;;;5105461;28;19972;-85
2023/06/16 03:00:38;;;;;;;;;;;11.60;99.90;;;;;;5080868;28;20331;-86
2023/06/16 03:03:07;;;;;;;;;;;11.60;99.90;;;;;;5106788;28;19924;-85
2023/06/16 03:05:33;;;;;;;;;;;11.50;99.90;;;;;;5090246;27;19924;-84
2023/06/16 03:07:58;;;;;;;;;;;11.50;99.90;;;;;;5104642;28;20003;-84
2023/06/16 03:10:24;;;;;;;;;;;11.50;99.90;;;;;;5107783;28;19931;-84
2023/06/16 03:12:50;;;;;;;;;;;11.40;99.90;;;;;;5120927;27;19930;-85
2023/06/16 03:15:15;;;;;;;;;;;11.40;99.90;;;;;;5092204;27;19928;-85
2023/06/16 03:17:42;;;;;;;;;;;11.30;99.90;;;;;;5111278;27;19977;-85
2023/06/16 03:20:08;;;;;;;;;;;11.20;99.90;;;;;;5096849;28;19949;-85
2023/06/16 03:22:34;;;;;;;;;;;11.20;99.90;;;;;;5114045;28;19928;-84
2023/06/16 03:25:02;;;;;;;;;;;11.20;99.90;;;;;;5116878;27;21439;-85
2023/06/16 03:27:28;;;;;;;;;;;11.10;99.90;;;;;;5121868;27;20379;-85
2023/06/16 03:29:55;;;;;;;;;;;11.10;99.90;;;;;;5098397;28;20382;-85
2023/06/16 03:32:20;;;;;;;;;;;11.10;99.90;;;;;;5115257;27;19923;-85
2023/06/16 03:34:46;;;;;;;;;;;11.10;99.90;;;;;;5116457;27;19928;-85
2023/06/16 03:37:12;;;;;;;;;;;11.10;99.90;;;;;;5109024;28;19924;-85
2023/06/16 03:39:38;;;;;;;;;;;11.20;99.90;;;;;;5089816;27;19924;-84
2023/06/16 03:42:03;;;;;;;;;;;11.20;99.90;;;;;;5113532;28;19969;-84
2023/06/16 03:44:29;;;;;;;;;;;11.30;99.90;;;;;;5110617;28;19955;-85
2023/06/16 03:46:55;;;;;;;;;;;11.30;99.90;;;;;;5100463;28;19924;-85
2023/06/16 03:49:21;;;;;;;;;;;11.30;99.90;;;;;;5098935;28;19924;-84
2023/06/16 03:51:46;;;;;;;;;;;11.50;99.90;;;;;;5085254;28;19928;-85
2023/06/16 03:54:12;;;;;;;;;;;11.60;99.90;;;;;;5110275;28;19976;-85
2023/06/16 03:56:38;;;;;;;;;;;11.80;99.90;;;;;;5093113;28;19931;-84
2023/06/16 03:59:03;;;;;;;;;;;11.90;99.90;;;;;;5096509;28;19931;-84
2023/06/16 04:01:30;;;;;;;;;;;12.00;99.90;;;;;;5109486;28;20367;-85
2023/06/16 04:03:56;;;;;;;;;;;12.10;99.90;;;;;;5086751;28;19971;-84
2023/06/16 04:06:21;;;;;;;;;;;12.10;99.90;;;;;;5111259;28;20028;-84
2023/06/16 04:08:47;;;;;;;;;;;12.20;99.90;;;;;;5100520;28;19931;-84
2023/06/16 04:11:14;;;;;;;;;;;12.20;99.90;;;;;;5111323;28;20007;-84
2023/06/16 04:13:43;;;;;;;;;;;12.30;99.90;;;;;;5119182;27;19923;-85
2023/06/16 04:16:08;;;;;;;;;;;12.40;99.90;;;;;;5100306;27;19980;-85
2023/06/16 04:18:35;;;;;;;;;;;12.40;99.90;;;;;;5113433;27;20014;-84
2023/06/16 04:21:00;;;;;;;;;;;12.50;99.90;;;;;;5097818;28;19923;-85
2023/06/16 04:23:26;;;;;;;;;;;12.50;99.90;;;;;;5100865;28;20398;-85
2023/06/16 04:25:52;;;;;;;;;;;12.60;99.90;;;;;;5093678;28;19923;-84
2023/06/16 04:28:18;;;;;;;;;;;12.70;99.90;;;;;;5095696;28;19985;-84
2023/06/16 04:30:44;;;;;;;;;;;12.80;99.90;;;;;;5090627;28;19924;-84
2023/06/16 04:33:09;;;;;;;;;;;12.90;99.90;;;;;;5109063;28;19974;-85
2023/06/16 04:35:36;;;;;;;;;;;12.90;99.90;;;;;;5113104;28;19994;-84
2023/06/16 04:38:04;;;;;;;;;;;13.00;99.90;;;;;;5092760;28;20287;-85
2023/06/16 04:40:30;;;;;;;;;;;13.10;99.90;;;;;;5101477;27;19924;-85
2023/06/16 04:42:55;;;;;;;;;;;13.30;99.90;;;;;;5114974;28;20023;-84
2023/06/16 04:45:21;;;;;;;;;;;13.30;99.90;;;;;;5101091;28;19932;-84
2023/06/16 04:47:47;;;;;;;;;;;13.40;99.90;;;;;;5089100;28;20336;-84
2023/06/16 04:50:15;;;;;;;;;;;13.50;99.90;;;;;;5109246;28;19924;-85
2023/06/16 04:52:40;;;;;;;;;;;13.50;99.90;;;;;;5107819;28;19924;-84
2023/06/16 04:55:06;;;;;;;;;;;13.50;99.90;;;;;;5106003;28;19950;-84
2023/06/16 04:57:33;;;;;;;;;;;13.50;99.90;;;;;;5106036;28;20019;-85
2023/06/16 05:00:07;;;;;;;;;;;13.60;99.90;;;;;;5115931;28;20005;-84
2023/06/16 05:02:33;;;;;;;;;;;13.70;99.90;;;;;;5094289;28;19928;-84
2023/06/16 05:04:58;;;;;;;;;;;13.70;99.90;;;;;;5112982;28;20029;-85
2023/06/16 05:07:24;;;;;;;;;;;13.80;99.90;;;;;;5112398;28;19923;-84
2023/06/16 05:09:49;;;;;;;;;;;13.90;99.90;;;;;;5109608;28;19924;-84
2023/06/16 05:12:15;;;;;;;;;;;13.90;99.90;;;;;;5098045;28;19932;-85
2023/06/16 05:14:41;;;;;;;;;;;13.90;99.90;;;;;;5089719;28;20008;-84
2023/06/16 05:17:06;;;;;;;;;;;13.90;99.90;;;;;;5112367;28;19970;-84
2023/06/16 05:19:32;;;;;;;;;;;13.90;99.90;;;;;;5092014;28;20264;-84
2023/06/16 05:21:58;;;;;;;;;;;14.00;99.90;;;;;;5091880;28;19924;-85
2023/06/16 05:24:23;;;;;;;;;;;14.20;99.90;;;;;;5093652;28;19931;-85
2023/06/16 05:26:49;;;;;;;;;;;14.30;99.90;;;;;;5110116;28;20324;-84
2023/06/16 05:29:15;;;;;;;;;;;14.40;99.90;;;;;;5078551;28;19932;-84
2023/06/16 05:31:41;;;;;;;;;;;14.50;99.90;;;;;;5108193;28;20393;-84
2023/06/16 05:34:06;;;;;;;;;;;14.60;99.90;;;;;;5068438;28;20336;-84
2023/06/16 05:36:35;;;;;;;;;;;14.60;99.90;;;;;;5091908;28;19947;-85
2023/06/16 05:39:01;;;;;;;;;;;14.70;99.90;;;;;;5107297;27;19924;-85
2023/06/16 05:41:27;;;;;;;;;;;14.80;99.90;;;;;;5119872;27;20026;-84
2023/06/16 05:43:57;;;;;;;;;;;14.80;99.90;;;;;;5093062;28;19931;-85
2023/06/16 05:46:22;;;;;;;;;;;15.00;99.90;;;;;;5109871;28;20280;-84
2023/06/16 05:48:48;;;;;;;;;;;15.10;99.90;;;;;;5109803;28;20025;-84
2023/06/16 05:51:14;;;;;;;;;;;15.20;99.90;;;;;;5116057;28;19967;-85
2023/06/16 05:53:40;;;;;;;;;;;15.30;99.90;;;;;;5115903;28;19923;-85
2023/06/16 05:56:05;;;;;;;;;;;15.30;99.90;;;;;;5098057;28;19935;-84
2023/06/16 05:58:36;;;;;;;;;;;15.40;99.90;;;;;;5129261;27;20075;-85
2023/06/16 06:01:06;;;;;;;;;;;15.50;99.90;;;;;;5113154;27;19959;-85
2023/06/16 06:03:32;;;;;;;;;;;15.50;99.90;;;;;;5112466;28;19967;-86
2023/06/16 06:05:58;;;;;;;;;;;15.70;99.90;;;;;;5095069;28;19931;-86
2023/06/16 06:08:27;;;;;;;;;;;15.80;99.90;;;;;;5112203;27;19931;-87
2023/06/16 06:10:53;;;;;;;;;;;15.90;99.90;;;;;;5086583;28;19968;-86
2023/06/16 06:13:18;;;;;;;;;;;16.00;99.90;;;;;;5107151;27;20355;-85
2023/06/16 06:15:44;;;;;;;;;;;16.10;99.90;;;;;;5089119;28;19939;-86
2023/06/16 06:18:10;;;;;;;;;;;16.60;99.90;;;;;;5106645;28;20018;-87
2023/06/16 06:20:38;;;;;;;;;;;16.20;99.90;;;;;;5090898;28;20394;-86
2023/06/16 06:23:03;;;;;;;;;;;16.30;99.90;;;;;;5076418;28;21143;-87
2023/06/16 06:25:29;;;;;;;;;;;16.40;99.90;;;;;;5102787;27;20018;-86
2023/06/16 06:27:54;;;;;;;;;;;16.50;99.90;;;;;;5098045;28;19932;-86
2023/06/16 06:30:20;;;;;;;;;;;16.60;99.90;;;;;;5092046;27;19924;-87
2023/06/16 06:32:46;;;;;;;;;;;16.60;99.90;;;;;;5130683;27;19943;-88
2023/06/16 06:35:11;;;;;;;;;;;16.70;99.90;;;;;;5098903;28;19939;-85
2023/06/16 06:37:37;;;;;;;;;;;16.80;99.90;;;;;;5110320;28;19946;-86
2023/06/16 06:40:03;;;;;;;;;;;16.90;99.90;;;;;;5096949;27;20428;-85
2023/06/16 06:42:29;;;;;;;;;;;17.00;99.90;;;;;;5123962;28;19932;-85
2023/06/16 06:44:54;;;;;;;;;;;17.10;99.90;;;;;;5122986;27;19924;-86
2023/06/16 06:47:21;;;;;;;;;;;17.20;99.90;;;;;;5108050;27;19950;-86
2023/06/16 06:49:48;;;;;;;;;;;17.30;99.90;;;;;;5118875;27;19923;-86
2023/06/16 06:52:14;;;;;;;;;;;17.40;99.90;;;;;;5112241;27;19931;-85
2023/06/16 06:54:39;;;;;;;;;;;17.40;99.90;;;;;;5080450;28;19924;-86
2023/06/16 06:57:06;;;;;;;;;;;17.50;99.90;;;;;;5114413;27;20018;-86
2023/06/16 06:59:32;;;;;;;;;;;17.50;99.90;;;;;;5109334;27;19923;-86
2023/06/16 07:01:58;;;;;;;;;;;17.60;99.90;;;;;;5102773;27;19923;-86
2023/06/16 07:04:23;;;;;;;;;;;17.70;99.90;;;;;;5099464;27;20264;-85
2023/06/16 07:06:49;;;;;;;;;;;17.70;99.90;;;;;;5102892;27;19959;-86
2023/06/16 07:09:17;;;;;;;;;;;17.80;99.90;;;;;;5112389;28;19931;-86
2023/06/16 07:11:43;;;;;;;;;;;17.20;99.90;;;;;;5090063;28;19953;-87
2023/06/16 07:14:10;;;;;;;;;;;17.70;99.90;;;;;;5119624;27;19924;-86
2023/06/16 07:16:36;;;;;;;;;;;18.00;99.90;;;;;;5122328;27;19927;-85
2023/06/16 07:19:02;;;;;;;;;;;18.10;99.90;;;;;;5083110;28;19930;-85
2023/06/16 07:21:28;;;;;;;;;;;18.10;99.90;;;;;;5112728;28;19982;-85
2023/06/16 07:23:53;;;;;;;;;;;18.20;99.90;;;;;;5092239;28;19967;-86
2023/06/16 07:26:19;;;;;;;;;;;18.30;99.90;;;;;;5121978;27;20019;-85
2023/06/16 07:28:45;;;;;;;;;;;18.30;99.90;;;;;;5096359;28;19977;-86
2023/06/16 07:31:10;;;;;;;;;;;18.30;99.90;;;;;;5091770;28;20001;-86
2023/06/16 07:33:36;;;;;;;;;;;18.40;99.90;;;;;;5094071;27;20027;-86
2023/06/16 07:36:05;;;;;;;;;;;18.50;99.90;;;;;;5099979;28;19970;-86
2023/06/16 07:38:31;;;;;;;;;;;18.50;99.90;;;;;;5082488;27;19945;-86
2023/06/16 07:40:57;;;;;;;;;;;18.50;99.90;;;;;;5103293;28;19924;-85
2023/06/16 07:43:22;;;;;;;;;;;19.10;99.90;;;;;;5079225;28;19927;-86
2023/06/16 07:45:50;;;;;;;;;;;18.10;99.90;;;;;;5114083;27;19928;-87
2023/06/16 07:48:16;;;;;;;;;;;18.70;99.90;;;;;;5090806;27;19928;-86
2023/06/16 07:50:42;;;;;;;;;;;18.80;99.90;;;;;;5114158;27;19939;-86
2023/06/16 07:53:07;;;;;;;;;;;18.80;99.90;;;;;;5107569;27;19924;-86
2023/06/16 07:55:33;;;;;;;;;;;18.90;99.90;;;;;;5087593;28;19924;-85
2023/06/16 07:57:58;;;;;;;;;;;19.00;99.90;;;;;;5100167;28;19932;-85
2023/06/16 08:00:24;;;;;;;;;;;19.10;99.90;;;;;;5117568;27;19923;-86
2023/06/16 08:02:50;;;;;;;;;;;19.10;99.90;;;;;;5096611;28;19924;-85
2023/06/16 08:05:16;;;;;;;;;;;19.20;99.90;;;;;;5121064;27;19949;-86
2023/06/16 08:07:42;;;;;;;;;;;19.30;99.90;;;;;;5096994;28;20383;-86
2023/06/16 08:10:08;;;;;;;;;;;19.30;99.90;;;;;;5111255;27;19923;-86
2023/06/16 08:12:34;;;;;;;;;;;19.30;99.90;;;;;;5125057;27;19927;-85
2023/06/16 08:15:00;;;;;;;;;;;19.40;99.90;;;;;;5111691;27;19928;-85
2023/06/16 08:17:25;;;;;;;;;;;19.50;99.90;;;;;;5087889;28;20710;-86
2023/06/16 08:19:53;;;;;;;;;;;19.50;99.90;;;;;;5094126;28;19924;-86
2023/06/16 08:22:19;;;;;;;;;;;19.60;99.90;;;;;;5110381;27;19923;-86
2023/06/16 08:24:45;;;;;;;;;;;19.60;99.90;;;;;;5116131;27;19930;-86
2023/06/16 08:27:11;;;;;;;;;;;19.70;99.90;;;;;;5089473;28;19923;-86
2023/06/16 08:29:37;;;;;;;;;;;19.70;99.90;;;;;;5111927;28;19930;-86
2023/06/16 08:32:05;;;;;;;;;;;19.80;99.90;;;;;;5085423;27;20038;-86
2023/06/16 08:34:31;;;;;;;;;;;19.90;99.90;;;;;;5107034;27;19923;-87
2023/06/16 08:36:56;;;;;;;;;;;19.90;99.90;;;;;;5091334;28;19938;-85
2023/06/16 08:39:22;;;;;;;;;;;19.90;99.90;;;;;;5112908;27;19931;-86
2023/06/16 08:41:53;;;;;;;;;;;20.00;99.90;;;;;;5099322;28;19975;-86
2023/06/16 08:44:20;;;;;;;;;;;20.10;99.90;;;;;;5129742;27;19923;-86
2023/06/16 08:46:46;;;;;;;;;;;20.10;99.90;;;;;;5110004;28;20476;-88
2023/06/16 08:49:14;;;;;;;;;;;20.20;99.90;;;;;;5094022;28;19928;-87
2023/06/16 08:51:54;;;;;;;;;;;20.30;99.90;;;;;;5117127;27;19934;-85
2023/06/16 08:54:20;;;;;;;;;;;20.30;99.90;;;;;;5094648;28;19931;-86
2023/06/16 08:56:46;;;;;;;;;;;20.40;99.90;;;;;;5115602;28;20401;-87
2023/06/16 08:59:12;;;;;;;;;;;20.40;99.90;;;;;;5089356;28;19924;-87
2023/06/16 09:01:40;;;;;;;;;;;20.40;96.10;;;;;;5108666;28;19931;-86
2023/06/16 09:04:09;;;;;;;;;;;20.50;97.50;;;;;;5100109;28;19938;-86
2023/06/16 09:06:44;;;;;;;;;;;20.60;95.90;;;;;;5077330;28;19928;-86
2023/06/16 09:09:09;;;;;;;;;;;20.60;94.30;;;;;;5093400;28;19968;-86
2023/06/16 09:11:37;;;;;;;;;;;20.70;96.70;;;;;;5104105;28;19982;-86
2023/06/16 09:14:10;;;;;;;;;;;20.80;95.10;;;;;;5092416;28;20044;-85
2023/06/16 09:16:37;;;;;;;;;;;20.90;96.90;;;;;;5104634;28;19928;-86
2023/06/16 09:19:09;;;;;;;;;;;21.00;95.00;;;;;;5108464;28;19950;-85
2023/06/16 09:21:37;;;;;;;;;;;21.10;93.50;;;;;;5113627;27;19930;-86
2023/06/16 09:24:03;;;;;;;;;;;20.20;91.30;;;;;;5114292;27;20373;-86
2023/06/16 09:26:35;;;;;;;;;;;21.20;91.30;;;;;;5109565;27;19924;-86
2023/06/16 09:29:19;;;;;;;;;;;21.20;91.20;;;;;;5091918;28;19924;-89
2023/06/16 09:31:45;;;;;;;;;;;21.30;89.80;;;;;;5123218;27;19928;-89
2023/06/16 09:34:11;;;;;;;;;;;21.30;91.10;;;;;;5089550;27;19930;-88
2023/06/16 09:36:37;;;;;;;;;;;21.50;91.80;;;;;;5118243;27;19946;-88
2023/06/16 09:39:08;;;;;;;;;;;21.60;90.90;;;;;;5111458;28;20387;-89
2023/06/16 09:41:34;;;;;;;;;;;21.70;88.20;;;;;;5090373;28;20065;-90
2023/06/16 09:44:03;;;;;;;;;;;21.70;90.60;;;;;;5115661;28;20358;-88
2023/06/16 09:46:30;;;;;;;;;;;21.80;90.50;;;;;;5103528;27;19930;-90
2023/06/16 09:48:59;;;;;;;;;;;21.90;90.50;;;;;;5116507;27;20371;-89
2023/06/16 09:51:24;;;;;;;;;;;22.00;90.00;;;;;;5099497;28;19923;-88
2023/06/16 09:53:51;;;;;;;;;;;22.10;85.90;;;;;;5112272;27;19924;-89
2023/06/16 09:56:17;;;;;;;;;;;22.10;87.20;;;;;;5131779;27;19931;-90
2023/06/16 09:58:47;;;;;;;;;;;22.20;88.80;;;;;;5128743;27;19911;-89
2023/06/16 10:01:15;;;;;;;;;;;22.30;87.50;;;;;;5144132;27;19986;-89
2023/06/16 10:03:43;;;;;;;;;;;22.40;88.60;;;;;;5131334;27;19928;-88
2023/06/16 10:06:19;;;;;;;;;;;22.40;86.10;;;;;;5137884;27;19930;-90
2023/06/16 10:08:49;;;;;;;;;;;22.50;87.50;;;;;;5104032;28;19932;-90
2023/06/16 10:11:22;;;;;;;;;;;22.50;86.80;;;;;;5097769;28;19939;-87
2023/06/16 10:13:58;;;;;;;;;;;22.60;86.00;;;;;;5091152;28;19981;-90
2023/06/16 10:16:27;;;;;;;;;;;22.60;79.50;;;;;;5079814;28;19950;-87
2023/06/16 10:18:53;;;;;;;;;;;22.70;81.70;;;;;;5087774;28;19928;-88
2023/06/16 10:21:21;;;;;;;;;;;22.70;82.00;;;;;;5084330;28;19931;-89
2023/06/16 10:23:47;;;;;;;;;;;22.80;80.10;;;;;;5080008;28;19955;-88
2023/06/16 10:26:13;;;;;;;;;;;22.80;79.50;;;;;;5100229;27;19938;-89
2023/06/16 10:28:40;;;;;;;;;;;22.90;77.20;;;;;;5079270;27;19924;-88
2023/06/16 10:31:11;;;;;;;;;;;23.00;80.30;;;;;;5116159;27;19993;-88
2023/06/16 10:33:55;;;;;;;;;;;23.00;80.10;;;;;;5108766;28;20382;-86
2023/06/16 10:36:27;;;;;;;;;;;23.10;74.70;;;;;;5115066;27;19960;-86
2023/06/16 10:39:11;;;;;;;;;;;23.00;74.10;;;;;;5112676;28;19973;-86
2023/06/16 10:41:57;;;;;;;;;;;23.00;73.80;;;;;;5103037;27;20364;-86
2023/06/16 10:44:32;;;;;;;;;;;23.10;73.20;;;;;;5085511;28;20330;-85
2023/06/16 10:47:13;;;;;;;;;;;23.10;74.60;;;;;;5095083;28;20335;-87
2023/06/16 10:49:50;;;;;;;;;;;23.10;75.20;;;;;;5112051;28;19923;-86
2023/06/16 10:52:30;;;;;;;;;;;23.20;74.00;;;;;;5098364;27;19930;-87
2023/06/16 10:54:56;;;;;;;;;;;23.40;74.60;;;;;;5109178;27;19927;-87
2023/06/16 10:57:22;;;;;;;;;;;23.40;71.60;;;;;;5094596;28;20019;-86
2023/06/16 11:00:01;;;;;;;;;;;23.40;70.70;;;;;;5097450;28;20015;-87
2023/06/16 11:02:28;;;;;;;;;;;23.40;71.90;;;;;;5127890;27;19977;-87
2023/06/16 11:05:12;;;;;;;;;;;23.50;73.90;;;;;;5094794;28;19923;-85
2023/06/16 11:07:39;;;;;;;;;;;23.60;74.40;;;;;;5105610;28;20322;-83
2023/06/16 11:10:05;;;;;;;;;;;23.80;71.30;;;;;;5093767;27;20513;-85
2023/06/16 11:12:31;;;;;;;;;;;23.80;73.90;;;;;;5110978;27;19927;-84
2023/06/16 11:14:57;;;;;;;;;;;23.90;71.50;;;;;;5098073;28;19925;-85
2023/06/16 11:17:23;;;;;;;;;;;23.80;70.30;;;;;;5086968;28;19931;-83
2023/06/16 11:19:54;;;;;;;;;;;23.90;71.20;;;;;;5094174;28;19928;-83
2023/06/16 11:22:32;;;;;;;;;;;23.60;71.40;;;;;;5092681;28;19946;-84
2023/06/16 11:24:58;;;;;;;;;;;24.00;69.00;;;;;;5107092;28;19924;-83
2023/06/16 11:27:25;;;;;;;;;;;24.00;71.40;;;;;;5116188;27;19931;-84
2023/06/16 11:29:53;;;;;;;;;;;24.10;71.40;;;;;;5115423;27;20320;-84
2023/06/16 11:32:27;;;;;;;;;;;24.20;69.70;;;;;;5095972;27;20019;-85
2023/06/16 11:34:55;;;;;;;;;;;24.30;68.90;;;;;;5103034;27;19974;-85
2023/06/16 11:37:21;;;;;;;;;;;24.30;67.60;;;;;;5077222;28;19932;-86
2023/06/16 11:39:47;;;;;;;;;;;24.30;68.90;;;;;;5094660;28;19938;-86
2023/06/16 11:42:14;;;;;;;;;;;24.30;68.70;;;;;;5078071;28;19943;-86
2023/06/16 11:44:39;;;;;;;;;;;24.30;66.20;;;;;;5093050;28;19973;-86
2023/06/16 11:47:05;;;;;;;;;;;24.40;67.30;;;;;;5058458;28;20232;-84
2023/06/16 11:49:33;;;;;;;;;;;24.40;65.30;;;;;;5091406;28;19924;-85
2023/06/16 11:52:02;;;;;;;;;;;24.50;66.10;;;;;;5075841;28;19932;-85
2023/06/16 11:54:28;;;;;;;;;;;24.50;67.00;;;;;;5093822;28;19984;-86
2023/06/16 11:56:57;;;;;;;;;;;24.50;67.00;;;;;;5096106;28;20724;-88
2023/06/16 11:59:28;;;;;;;;;;;24.60;65.90;;;;;;5093397;28;19928;-87
2023/06/16 12:01:57;;;;;;;;;;;24.70;64.80;;;;;;5078235;28;19932;-87
2023/06/16 12:04:23;;;;;;;;;;;24.70;66.20;;;;;;5094582;28;19924;-87
2023/06/16 12:06:49;;;;;;;;;;;24.70;64.00;;;;;;5096157;28;19931;-87
2023/06/16 12:09:19;;;;;;;;;;;24.70;65.30;;;;;;5088484;27;19931;-87
2023/06/16 12:11:46;;;;;;;;;;;24.60;63.80;;;;;;5071994;28;19932;-88
2023/06/16 12:14:21;;;;;;;;;;;24.60;64.80;;;;;;5091425;27;20391;-86
2023/06/16 12:16:52;;;;;;;;;;;24.30;64.30;;;;;;5074170;28;19939;-86
2023/06/16 12:19:21;;;;;;;;;;;24.70;65.20;;;;;;5073273;28;20050;-85
2023/06/16 12:21:56;;;;;;;;;;;24.70;65.60;;;;;;5092212;27;19932;-88
2023/06/16 12:24:22;;;;;;;;;;;24.80;66.70;;;;;;5092277;28;20342;-85
2023/06/16 12:26:51;;;;;;;;;;;24.90;64.20;;;;;;5076292;28;20036;-84
2023/06/16 12:29:18;;;;;;;;;;;24.90;64.90;;;;;;5071447;28;19932;-86
2023/06/16 12:31:53;;;;;;;;;;;24.90;64.50;;;;;;5078116;28;19932;-84
2023/06/16 12:34:26;;;;;;;;;;;24.80;65.50;;;;;;5096084;28;19939;-86
2023/06/16 12:36:53;;;;;;;;;;;24.80;65.80;;;;;;5082824;28;19936;-84
2023/06/16 12:39:19;;;;;;;;;;;24.90;67.30;;;;;;5087957;28;20959;-85
2023/06/16 12:41:59;;;;;;;;;;;25.00;65.00;;;;;;5067075;28;19969;-84
2023/06/16 12:44:40;;;;;;;;;;;24.90;64.70;;;;;;5081137;28;19931;-88
2023/06/16 12:47:05;;;;;;;;;;;24.90;65.40;;;;;;5097023;28;20495;-87
2023/06/16 12:49:31;;;;;;;;;;;24.90;65.30;;;;;;5091957;28;19924;-85
2023/06/16 12:51:57;;;;;;;;;;;25.00;64.30;;;;;;5075531;28;19924;-85
2023/06/16 12:54:24;;;;;;;;;;;25.00;65.70;;;;;;5076396;28;19948;-85
2023/06/16 12:56:50;;;;;;;;;;;25.10;63.80;;;;;;5072990;28;20016;-87
2023/06/16 12:59:16;;;;;;;;;;;25.10;64.80;;;;;;5079363;28;19985;-88
2023/06/16 13:01:42;;;;;;;;;;;25.10;66.60;;;;;;5056911;28;21381;-86
2023/06/16 13:04:07;;;;;;;;;;;25.10;64.30;;;;;;5094406;28;19939;-87
2023/06/16 13:06:33;;;;;;;;;;;25.10;63.60;;;;;;5070260;28;20032;-84
2023/06/16 13:08:59;;;;;;;;;;;25.00;64.70;;;;;;5090221;28;19924;-85
2023/06/16 13:11:26;;;;;;;;;;;25.00;65.00;;;;;;5091664;28;20386;-84
2023/06/16 13:13:52;;;;;;;;;;;25.10;65.50;;;;;;5071639;28;20467;-88
2023/06/16 13:16:18;;;;;;;;;;;25.20;65.80;;;;;;5075357;28;20022;-86
2023/06/16 13:18:44;;;;;;;;;;;25.20;64.00;;;;;;5113560;28;19920;-89
2023/06/16 13:21:10;;;;;;;;;;;25.20;63.90;;;;;;5082903;28;19936;-90
2023/06/16 13:23:35;;;;;;;;;;;25.30;67.00;;;;;;5112201;28;19954;-85
2023/06/16 13:26:01;;;;;;;;;;;25.30;63.90;;;;;;5088657;28;19924;-84
2023/06/16 13:28:27;;;;;;;;;;;25.30;64.20;;;;;;5090383;28;19949;-85
2023/06/16 13:30:53;;;;;;;;;;;25.20;62.50;;;;;;5091546;28;19924;-84
2023/06/16 13:33:18;;;;;;;;;;;25.20;63.20;;;;;;5101939;28;19932;-85
2023/06/16 13:35:44;;;;;;;;;;;25.10;63.70;;;;;;5079816;28;19928;-84
2023/06/16 13:38:10;;;;;;;;;;;25.00;64.10;;;;;;5092355;28;19962;-85
2023/06/16 13:40:35;;;;;;;;;;;25.00;63.30;;;;;;5089287;28;19942;-85
2023/06/16 13:43:02;;;;;;;;;;;24.90;62.50;;;;;;5056040;28;20443;-84
2023/06/16 13:45:28;;;;;;;;;;;24.80;64.20;;;;;;5076255;28;19932;-85
2023/06/16 13:47:54;;;;;;;;;;;24.90;64.10;;;;;;5075692;28;19931;-85
2023/06/16 13:50:19;;;;;;;;;;;25.00;64.50;;;;;;5076463;28;19927;-84
2023/06/16 13:52:45;;;;;;;;;;;25.10;64.70;;;;;;5076037;28;20535;-83
2023/06/16 13:55:10;;;;;;;;;;;25.20;64.50;;;;;;5074786;28;19931;-85
2023/06/16 13:57:36;;;;;;;;;;;25.10;64.10;;;;;;5094045;28;19932;-85
2023/06/16 14:00:03;;;;;;;;;;;25.00;63.70;;;;;;5081417;28;19927;-85
2023/06/16 14:02:29;;;;;;;;;;;25.00;64.00;;;;;;5096361;28;20027;-86
2023/06/16 14:04:54;;;;;;;;;;;25.00;64.70;;;;;;5082112;28;19971;-86
2023/06/16 14:07:20;;;;;;;;;;;25.00;63.20;;;;;;5084480;28;19963;-86
2023/06/16 14:09:46;;;;;;;;;;;25.00;62.50;;;;;;5094925;28;20275;-86
2023/06/16 14:12:11;;;;;;;;;;;25.00;62.40;;;;;;5097607;27;19924;-85
2023/06/16 14:14:37;;;;;;;;;;;24.90;62.20;;;;;;5081614;28;19924;-86
2023/06/16 14:17:03;;;;;;;;;;;24.70;62.60;;;;;;5074735;28;19924;-86